Time;durP1;ratioP1;P1;durP2;ratioP2;P2;SDS_P1;SDS_P2;PMS_P1;PMS_P2;Temp;Humidity;BMP_temperature;BMP_pressure;BME280_temperature;BME280_humidity;BME280_pressure;Samples;Min_cycle;Max_cycle;Signal;HPM_P1;HPM_P2
2022/11/19 00:01:27;;;;;;;37.95;24.27;;;;;;;12.66;100.00;95867.06;5007965;28;20127;-56
2022/11/19 00:03:54;;;;;;;37.83;23.77;;;;;;;12.34;100.00;95816.63;5007626;28;20062;-56
2022/11/19 00:06:23;;;;;;;36.33;23.90;;;;;;;12.64;100.00;95869.47;5007935;28;20054;-56
2022/11/19 00:08:50;;;;;;;29.67;20.17;;;;;;;12.31;100.00;95822.19;5007424;28;20094;-58
2022/11/19 00:14:11;;;;;;;28.52;18.13;;;;;;;12.30;100.00;95876.94;5008156;28;20053;-55
2022/11/19 00:16:39;;;;;;;31.15;19.17;;;;;;;12.34;100.00;95902.69;4992979;28;20065;-59
2022/11/19 00:19:05;;;;;;;32.40;20.08;;;;;;;12.41;100.00;95869.28;4986950;28;20088;-56
2022/11/19 00:21:32;;;;;;;35.72;21.45;;;;;;;12.33;100.00;95864.22;4987933;28;20352;-58
2022/11/19 00:23:58;;;;;;;33.40;21.60;;;;;;;11.66;100.00;95792.63;4986786;28;20089;-55
2022/11/19 00:26:25;;;;;;;38.90;23.73;;;;;;;12.13;100.00;95852.88;4988078;28;20124;-56
2022/11/19 00:28:53;;;;;;;39.65;23.58;;;;;;;12.13;100.00;95869.53;4988074;28;20137;-58
2022/11/19 00:31:20;;;;;;;35.55;22.73;;;;;;;11.76;100.00;95825.81;4987721;28;20093;-56
2022/11/19 00:33:49;;;;;;;34.70;22.02;;;;;;;12.19;100.00;95888.13;4987857;28;20133;-59
2022/11/19 00:36:16;;;;;;;33.55;21.92;;;;;;;12.27;100.00;95899.16;4987870;28;20149;-57
2022/11/19 00:38:43;;;;;;;39.92;24.65;;;;;;;12.30;100.00;95893.59;4987878;28;20054;-56
2022/11/19 00:41:10;;;;;;;38.38;24.73;;;;;;;12.33;100.00;95892.75;4986549;28;20112;-58
2022/11/19 00:43:45;;;;;;;41.20;26.38;;;;;;;12.01;100.00;95850.63;4986268;28;20054;-59
2022/11/19 00:46:23;;;;;;;36.90;23.77;;;;;;;12.42;100.00;95907.00;4987774;28;20089;-59
2022/11/19 00:48:52;;;;;;;36.20;24.73;;;;;;;12.42;100.00;95920.88;4987587;28;20104;-56
2022/11/19 00:51:20;;;;;;;37.50;25.63;;;;;;;12.38;100.00;95906.22;4987300;28;20058;-59
2022/11/19 00:53:47;;;;;;;39.10;26.02;;;;;;;12.39;100.00;95899.47;4987516;28;20567;-57
2022/11/19 00:56:17;;;;;;;45.75;28.25;;;;;;;12.31;100.00;95906.28;4987410;28;20438;-60
2022/11/19 00:58:44;;;;;;;47.47;27.75;;;;;;;12.37;100.00;95910.19;4987374;28;20054;-59
2022/11/19 01:01:12;;;;;;;45.30;29.13;;;;;;;12.31;100.00;95909.06;4987004;28;20129;-58
2022/11/19 01:03:40;;;;;;;57.58;33.10;;;;;;;12.21;100.00;95918.25;4987758;28;20054;-59
2022/11/19 01:06:08;;;;;;;45.92;27.80;;;;;;;12.25;100.00;95909.91;4987563;28;20066;-60
2022/11/19 01:08:35;;;;;;;52.15;30.92;;;;;;;12.02;100.00;95904.91;4987785;28;20105;-60
2022/11/19 01:11:04;;;;;;;53.45;29.85;;;;;;;12.13;100.00;95911.16;4987506;28;20580;-56
2022/11/19 01:13:34;;;;;;;52.85;32.65;;;;;;;12.18;100.00;95930.19;4985575;28;20050;-56
2022/11/19 01:16:04;;;;;;;36.22;22.95;;;;;;;12.25;100.00;95946.78;4995227;28;20120;-60
2022/11/19 01:18:32;;;;;;;40.88;24.10;;;;;;;12.19;100.00;95938.09;5005188;28;20497;-56
2022/11/19 01:20:58;;;;;;;32.08;20.17;;;;;;;12.08;100.00;95931.03;5006628;28;20058;-56
2022/11/19 01:23:25;;;;;;;36.65;22.88;;;;;;;12.23;100.00;95959.50;5006885;28;20084;-57
2022/11/19 01:25:52;;;;;;;44.45;24.95;;;;;;;12.14;100.00;95957.16;5005208;28;20124;-58
2022/11/19 01:28:19;;;;;;;36.50;23.23;;;;;;;12.17;100.00;95970.25;5006775;28;20064;-57
2022/11/19 01:30:45;;;;;;;39.45;25.17;;;;;;;12.18;100.00;95963.50;5006190;28;20068;-60
2022/11/19 01:33:12;;;;;;;46.42;27.10;;;;;;;12.04;100.00;95941.38;5006483;28;20116;-61
2022/11/19 01:35:39;;;;;;;45.78;28.25;;;;;;;12.18;100.00;95969.03;5006108;28;20145;-56
2022/11/19 01:38:06;;;;;;;39.17;26.45;;;;;;;12.10;100.00;95973.06;5006560;28;20049;-59
2022/11/19 01:40:40;;;;;;;37.40;23.23;;;;;;;12.20;100.00;95966.66;5006057;28;20124;-59
2022/11/19 01:43:09;;;;;;;34.05;20.70;;;;;;;12.21;100.00;95973.78;5006542;28;20058;-60
2022/11/19 01:45:36;;;;;;;30.98;20.85;;;;;;;12.12;100.00;95976.22;5006425;28;20137;-59
2022/11/19 01:48:12;;;;;;;33.28;22.33;;;;;;;12.15;100.00;95975.41;5006526;28;20172;-59
2022/11/19 01:50:54;;;;;;;43.50;25.90;;;;;;;12.23;100.00;95971.41;5005137;28;20441;-57
2022/11/19 01:53:23;;;;;;;30.42;19.95;;;;;;;11.97;100.00;95971.94;5004877;28;20165;-58
2022/11/19 01:55:50;;;;;;;39.22;21.77;;;;;;;11.87;100.00;95989.44;5004914;28;20128;-59
2022/11/19 01:58:20;;;;;;;44.13;24.35;;;;;;;11.78;100.00;95983.53;5006627;28;20049;-57
2022/11/19 02:00:47;;;;;;;34.88;20.88;;;;;;;11.86;100.00;95987.84;5005987;28;20109;-60
2022/11/19 02:03:15;;;;;;;39.38;21.42;;;;;;;11.89;100.00;95987.03;5005975;28;20058;-57
2022/11/19 02:05:42;;;;;;;40.53;21.85;;;;;;;11.93;100.00;95993.38;5005599;28;20111;-58
2022/11/19 02:08:38;;;;;;;32.75;21.55;;;;;;;11.97;100.00;96002.47;5005521;28;20112;-59
2022/11/19 02:11:32;;;;;;;35.80;20.15;;;;;;;12.06;100.00;96000.06;5005346;28;20101;-57
2022/11/19 02:14:35;;;;;;;32.47;19.92;;;;;;;11.86;100.00;95991.44;5004705;28;20409;-57
2022/11/19 02:17:10;;;;;;;30.75;18.13;;;;;;;11.94;100.00;95997.72;4989485;28;20116;-59
2022/11/19 02:20:12;;;;;;;32.00;18.70;;;;;;;11.87;100.00;96001.31;4984882;28;20057;-57
2022/11/19 02:23:03;;;;;;;30.30;18.63;;;;;;;11.92;100.00;96011.22;5021837;28;20092;-57
2022/11/19 02:25:30;;;;;;;34.33;22.73;;;;;;;11.96;100.00;96023.09;4985366;28;20149;-61
2022/11/19 02:28:17;;;;;;;43.08;23.73;;;;;;;11.95;100.00;96021.50;4986109;28;20104;-60
2022/11/19 02:30:51;;;;;;;34.95;21.13;;;;;;;11.81;100.00;96030.69;4985923;28;20136;-60
2022/11/19 02:33:17;;;;;;;;;;;;;;;11.78;100.00;96027.94;4986393;28;20579;-58
2022/11/19 02:35:55;;;;;;;36.25;21.02;;;;;;;11.70;100.00;96023.59;4985828;28;20017;-57
2022/11/19 02:38:48;;;;;;;40.67;23.50;;;;;;;11.75;100.00;96034.28;4985899;28;20104;-60
2022/11/19 02:41:39;;;;;;;43.45;24.63;;;;;;;11.77;100.00;96034.69;4984047;28;20145;-60
2022/11/19 02:47:01;;;;;;;45.15;24.23;;;;;;;11.75;100.00;96034.28;4985597;28;20058;-59
2022/11/19 02:49:32;;;;;;;41.25;24.73;;;;;;;11.28;100.00;95966.28;4985469;28;20340;-57
2022/11/19 02:51:59;;;;;;;37.53;22.70;;;;;;;11.26;100.00;95967.88;4985223;28;20497;-60
2022/11/19 02:54:27;;;;;;;39.50;23.48;;;;;;;11.54;100.00;96034.34;4985159;28;20243;-56
2022/11/19 02:56:59;;;;;;;40.33;24.10;;;;;;;11.45;100.00;96031.19;4985268;28;20058;-60
2022/11/19 03:05:15;;;;;;;42.90;26.70;;;;;;;11.48;100.00;96058.09;4985026;28;20167;-57
2022/11/19 03:07:41;;;;;;;46.97;28.88;;;;;;;10.95;100.00;96000.03;4985286;28;20473;-57
2022/11/19 03:10:10;;;;;;;40.78;25.73;;;;;;;11.48;100.00;96058.09;4985255;28;20081;-61
2022/11/19 03:12:53;;;;;;;41.28;24.05;;;;;;;11.24;100.00;96058.97;4985275;28;20124;-57
2022/11/19 03:18:44;;;;;;;47.45;26.45;;;;;;;11.07;100.00;96065.28;5004754;28;20141;-59
2022/11/19 03:21:19;;;;;;;29.38;17.98;;;;;;;11.09;100.00;96082.31;5004418;28;20153;-59
2022/11/19 03:24:10;;;;;;;36.70;20.88;;;;;;;10.52;100.00;96026.94;5004520;28;20054;-60
2022/11/19 03:26:45;;;;;;;32.63;18.67;;;;;;;10.97;100.00;96093.81;5008422;28;20053;-56
2022/11/19 03:29:13;;;;;;;39.20;22.10;;;;;;;10.99;100.00;96097.78;5008171;28;20145;-59
2022/11/19 03:31:46;;;;;;;35.17;20.30;;;;;;;10.95;100.00;96101.72;5006683;28;20089;-57
2022/11/19 03:34:17;;;;;;;30.77;18.90;;;;;;;10.84;100.00;96095.41;5008318;28;20579;-57
2022/11/19 03:36:46;;;;;;;33.33;18.92;;;;;;;10.76;100.00;96110.41;5008681;28;20049;-57
2022/11/19 03:39:16;;;;;;;29.65;19.98;;;;;;;10.76;100.00;96107.66;5008440;28;20046;-57
2022/11/19 03:41:47;;;;;;;32.17;21.20;;;;;;;8.23;100.00;95728.22;5007048;28;20080;-59
2022/11/19 03:44:23;;;;;;;47.80;26.52;;;;;;;10.48;100.00;96106.41;5008346;28;20144;-59
2022/11/19 03:46:54;;;;;;;50.67;30.33;;;;;;;10.43;100.00;96120.63;5008227;28;20054;-58
2022/11/19 03:49:27;;;;;;;61.08;34.20;;;;;;;10.58;100.00;96121.47;5008393;28;20495;-57
2022/11/19 03:52:09;;;;;;;60.33;36.20;;;;;;;10.52;100.00;96129.38;5006684;28;20516;-60
2022/11/19 03:54:38;;;;;;;62.53;35.20;;;;;;;10.46;100.00;96119.84;5008325;28;20300;-57
2022/11/19 03:57:06;;;;;;;56.05;36.38;;;;;;;9.92;100.00;96048.13;5008159;28;20112;-59
2022/11/19 03:59:33;;;;;;;60.90;34.55;;;;;;;10.65;100.00;96154.72;5007856;28;20206;-59
2022/11/19 04:02:03;;;;;;;51.95;30.58;;;;;;;10.72;100.00;96165.03;5007869;28;20050;-60
2022/11/19 04:04:36;;;;;;;49.88;30.05;;;;;;;10.37;100.00;96122.22;5007942;28;20053;-60
2022/11/19 04:07:20;;;;;;;47.72;28.02;;;;;;;10.80;100.00;96172.16;5006234;28;20987;-60
2022/11/19 04:09:48;;;;;;;43.85;27.88;;;;;;;10.81;100.00;96176.50;5006386;28;20050;-58
2022/11/19 04:12:24;;;;;;;45.97;27.60;;;;;;;10.30;100.00;96100.06;5006589;28;20058;-57
2022/11/19 04:14:51;;;;;;;50.25;28.35;;;;;;;10.69;100.00;96166.59;5007866;28;20371;-59
2022/11/19 04:17:18;;;;;;;53.75;31.45;;;;;;;10.82;100.00;96180.88;4990407;28;20074;-57
2022/11/19 04:19:45;;;;;;;57.70;34.67;;;;;;;10.48;100.00;96123.03;4987139;28;20050;-59
2022/11/19 04:22:11;;;;;;;56.35;34.60;;;;;;;10.50;100.00;96136.47;4988103;28;20145;-60
2022/11/19 04:24:38;;;;;;;48.50;29.55;;;;;;;10.64;100.00;96169.75;4987832;28;20165;-60
2022/11/19 04:27:04;;;;;;;55.42;33.70;;;;;;;10.73;100.00;96172.16;4988069;28;20128;-60
2022/11/19 04:29:31;;;;;;;52.47;31.67;;;;;;;10.40;100.00;96132.50;4988197;28;20124;-56
2022/11/19 04:31:58;;;;;;;39.45;24.15;;;;;;;10.23;100.00;96122.16;4986806;28;20141;-59
2022/11/19 04:34:24;;;;;;;43.30;26.45;;;;;;;10.54;100.00;96193.44;4988502;28;20066;-57
2022/11/19 04:36:51;;;;;;;40.63;23.17;;;;;;;10.39;100.00;96200.13;4987182;28;20108;-58
2022/11/19 04:39:17;;;;;;;34.78;21.38;;;;;;;10.25;100.00;96196.50;4987728;28;20050;-59
2022/11/19 04:41:44;;;;;;;36.42;20.85;;;;;;;10.35;100.00;96207.59;4987904;28;20050;-60
2022/11/19 04:44:11;;;;;;;51.53;27.77;;;;;;;9.77;100.00;96215.16;4987926;28;20387;-59
2022/11/19 04:46:38;;;;;;;44.85;27.15;;;;;;;9.93;100.00;96207.38;4987892;28;20054;-59
2022/11/19 04:49:04;;;;;;;40.78;25.55;;;;;;;10.03;100.00;96223.25;4987803;28;20050;-57
2022/11/19 04:51:31;;;;;;;34.38;21.75;;;;;;;9.76;100.00;96185.94;4987420;28;20104;-57
2022/11/19 04:53:57;;;;;;;40.35;24.48;;;;;;;10.09;100.00;96229.22;4987448;28;20484;-59
2022/11/19 04:56:24;;;;;;;37.10;19.83;;;;;;;10.04;100.00;96235.09;4986214;28;20050;-58
2022/11/19 04:58:51;;;;;;;27.58;16.67;;;;;;;10.05;100.00;96237.47;4985691;28;20050;-59
2022/11/19 05:01:19;;;;;;;23.38;12.52;;;;;;;10.20;100.00;96241.94;4987379;28;20113;-57
2022/11/19 05:03:46;;;;;;;23.55;12.48;;;;;;;9.85;100.00;96210.47;4986712;28;20522;-57
2022/11/19 05:06:13;;;;;;;22.50;13.63;;;;;;;10.06;100.00;96249.34;4987027;28;20133;-60
2022/11/19 05:08:40;;;;;;;44.60;23.90;;;;;;;10.11;100.00;96230.44;4986733;28;20116;-59
2022/11/19 05:11:06;;;;;;;35.75;19.55;;;;;;;9.53;100.00;96193.66;4986969;28;20097;-60
2022/11/19 05:13:33;;;;;;;33.47;19.45;;;;;;;9.71;100.00;96208.41;4987407;28;20360;-57
2022/11/19 05:16:00;;;;;;;37.58;18.73;;;;;;;9.73;100.00;96199.75;4993213;28;20134;-59
2022/11/19 05:18:26;;;;;;;34.60;20.65;;;;;;;10.15;100.00;96264.44;5006687;28;20057;-60
2022/11/19 05:20:53;;;;;;;52.35;29.73;;;;;;;10.30;100.00;96270.88;5006443;28;20049;-57
2022/11/19 05:23:20;;;;;;;64.68;34.45;;;;;;;9.82;100.00;96208.47;5006971;28;20066;-60
2022/11/19 05:25:47;;;;;;;53.47;32.53;;;;;;;10.42;100.00;96271.31;5006720;28;20045;-57
2022/11/19 05:28:13;;;;;;;60.10;34.30;;;;;;;10.45;100.00;96284.38;5004652;28;20112;-60
2022/11/19 05:30:40;;;;;;;46.63;26.52;;;;;;;10.58;100.00;96299.50;5006446;28;20046;-56
2022/11/19 05:33:07;;;;;;;34.47;22.33;;;;;;;10.55;100.00;96303.03;5006561;28;20061;-55
2022/11/19 05:35:33;;;;;;;56.20;35.13;;;;;;;10.58;100.00;96305.03;5006018;28;20045;-57
2022/11/19 05:38:00;;;;;;;47.05;31.88;;;;;;;10.49;100.00;96312.09;5006595;28;20050;-55
2022/11/19 05:40:27;;;;;;;47.28;30.48;;;;;;;10.52;100.00;96334.28;5005917;28;20111;-58
2022/11/19 05:42:53;;;;;;;34.90;25.05;;;;;;;10.56;100.00;96306.59;5006369;28;20130;-58
2022/11/19 05:45:20;;;;;;;36.13;22.50;;;;;;;10.61;100.00;96309.78;5006092;28;20131;-56
2022/11/19 05:47:52;;;;;;;35.78;22.70;;;;;;;10.68;100.00;96309.81;5005501;28;20107;-57
2022/11/19 05:50:18;;;;;;;34.38;21.95;;;;;;;10.73;100.00;96330.81;5006197;28;20131;-58
2022/11/19 05:52:45;;;;;;;32.05;21.00;;;;;;;10.81;100.00;96321.38;5006176;28;20054;-57
2022/11/19 05:55:11;;;;;;;32.30;21.67;;;;;;;10.81;100.00;96317.78;5004392;28;20101;-57
2022/11/19 05:57:38;;;;;;;29.63;20.85;;;;;;;10.54;100.00;96270.97;5005986;28;20132;-58
2022/11/19 06:00:05;;;;;;;31.08;21.85;;;;;;;10.96;100.00;96352.66;5005751;28;20046;-58
2022/11/19 06:02:32;;;;;;;36.83;24.00;;;;;;;10.97;100.00;96355.06;5004592;28;20567;-58
2022/11/19 06:04:58;;;;;;;39.55;24.40;;;;;;;10.92;100.00;96340.78;5005854;28;20519;-58
2022/11/19 06:07:25;;;;;;;38.33;22.02;;;;;;;10.76;100.00;96315.41;5005307;28;20694;-58
2022/11/19 06:09:52;;;;;;;30.52;18.38;;;;;;;11.02;100.00;96367.78;5005652;28;20053;-56
2022/11/19 06:12:18;;;;;;;27.48;19.30;;;;;;;11.25;100.00;96371.00;5005532;28;20603;-56
2022/11/19 06:14:45;;;;;;;38.28;20.40;;;;;;;11.42;100.00;96384.13;5004113;28;20136;-56
2022/11/19 06:17:11;;;;;;;35.42;20.83;;;;;;;11.56;100.00;96386.94;4989400;28;20092;-56
2022/11/19 06:19:38;;;;;;;44.38;23.48;;;;;;;11.70;100.00;96378.69;4985811;28;20066;-61
2022/11/19 06:22:05;;;;;;;48.60;24.75;;;;;;;11.42;100.00;96315.63;4985974;28;20465;-59
2022/11/19 06:24:31;;;;;;;46.55;24.35;;;;;;;11.97;100.00;96380.72;4985475;28;20104;-59
2022/11/19 06:26:58;;;;;;;53.45;27.58;;;;;;;11.55;100.00;96335.44;4985487;28;20054;-59
2022/11/19 06:29:25;;;;;;;41.00;25.08;;;;;;;12.00;100.00;96382.69;4985966;28;20506;-59
2022/11/19 06:31:51;;;;;;;48.35;25.83;;;;;;;12.11;100.00;96379.91;4985757;28;20108;-59
2022/11/19 06:34:18;;;;;;;62.45;37.28;;;;;;;12.17;100.00;96372.81;4985484;28;20514;-59
2022/11/19 06:36:45;;;;;;;64.95;40.58;;;;;;;12.20;100.00;96383.13;4984180;28;20046;-58
2022/11/19 06:39:16;;;;;;;82.88;55.53;;;;;;;11.50;100.00;96288.69;4992995;28;20154;-57
2022/11/19 06:41:43;;;;;;;80.25;53.55;;;;;;;12.26;100.00;96395.41;5002402;28;20073;-60
2022/11/19 06:44:09;;;;;;;93.15;56.80;;;;;;;12.10;100.00;96389.44;5003738;28;20137;-59
2022/11/19 06:46:37;;;;;;;91.57;50.45;;;;;;;12.25;100.00;96413.22;5001083;28;20046;-57
2022/11/19 06:49:04;;;;;;;68.35;36.65;;;;;;;12.27;100.00;96410.84;4988575;28;21568;-58
2022/11/19 06:51:31;;;;;;;74.50;41.20;;;;;;;12.00;100.00;96368.00;5008151;28;20049;-60
2022/11/19 06:53:58;;;;;;;73.82;40.42;;;;;;;12.29;100.00;96413.25;5023303;28;20053;-59
2022/11/19 06:56:25;;;;;;;69.38;40.65;;;;;;;12.18;100.00;96391.03;5023836;28;20089;-57
2022/11/19 06:58:56;;;;;;;58.97;34.25;;;;;;;12.13;100.00;96389.44;5016974;28;20063;-55
2022/11/19 07:01:23;;;;;;;80.70;57.78;;;;;;;12.33;100.00;96412.03;5007138;28;20483;-57
2022/11/19 07:03:50;;;;;;;38.63;24.08;;;;;;;12.32;100.00;96412.44;5017876;28;20111;-61
2022/11/19 07:06:16;;;;;;;38.35;21.70;;;;;;;11.70;100.00;96420.28;5024595;28;20057;-60
2022/11/19 07:08:44;;;;;;;35.20;21.05;;;;;;;11.90;100.00;96414.00;5023898;28;20461;-55
2022/11/19 07:11:26;;;;;;;38.08;22.35;;;;;;;11.75;100.00;96356.09;5021714;28;20052;-56
2022/11/19 07:13:57;;;;;;;36.80;22.38;;;;;;;12.29;100.00;96425.16;5005781;28;20554;-59
2022/11/19 07:16:29;;;;;;;72.18;28.27;;;;;;;11.87;100.00;96370.38;5003970;28;20096;-56
2022/11/19 07:18:58;;;;;;;79.82;30.80;;;;;;;11.76;100.00;96382.69;5007045;28;20128;-59
2022/11/19 07:21:25;;;;;;;60.90;27.98;;;;;;;12.43;100.00;96435.44;5023966;28;20584;-60
2022/11/19 07:23:53;;;;;;;47.53;26.67;;;;;;;12.60;100.00;96413.22;5016863;28;20274;-63
2022/11/19 07:26:19;;;;;;;48.83;31.10;;;;;;;12.99;100.00;96425.06;4994929;28;20065;-58
2022/11/19 07:28:46;;;;;;;48.13;31.85;;;;;;;13.14;100.00;96368.25;4997733;28;20050;-62
2022/11/19 07:31:13;;;;;;;48.00;29.38;;;;;;;13.70;100.00;96408.94;5007760;28;20073;-59
2022/11/19 07:33:40;;;;;;;41.70;27.05;;;;;;;14.17;100.00;96410.22;5002545;28;20571;-62
2022/11/19 07:36:08;;;;;;;31.98;20.77;;;;;;;14.66;98.37;96449.69;5000326;28;20051;-60
2022/11/19 07:38:43;;;;;;;25.48;17.45;;;;;;;14.80;97.00;96420.88;5004806;28;20046;-58
2022/11/19 07:43:55;;;;;;;13.20;10.40;;;;;;;15.18;95.39;96444.78;5023525;28;20092;-59
2022/11/19 07:46:22;;;;;;;14.63;11.75;;;;;;;15.21;94.86;96434.81;5023239;28;20128;-59
2022/11/19 07:48:53;;;;;;;21.77;14.38;;;;;;;15.28;95.23;96443.91;5012492;28;20088;-62
2022/11/19 07:51:20;;;;;;;19.45;13.43;;;;;;;15.01;96.10;96403.94;5001967;28;20112;-64
2022/11/19 07:53:47;;;;;;;17.02;11.57;;;;;;;15.61;96.34;96442.34;5005254;28;20057;-56
2022/11/19 07:56:14;;;;;;;21.33;13.75;;;;;;;15.92;95.00;96430.75;5022223;28;20136;-60
2022/11/19 07:58:40;;;;;;;18.90;13.40;;;;;;;16.32;93.42;96438.16;5015814;28;20138;-58
2022/11/19 08:01:13;;;;;;;15.23;12.77;;;;;;;16.67;91.71;96458.41;5006355;28;20128;-59
2022/11/19 08:03:44;;;;;;;16.70;11.27;;;;;;;16.71;87.62;96414.41;5002457;28;20072;-65
2022/11/19 08:06:14;;;;;;;18.60;11.98;;;;;;;17.29;86.75;96462.09;4987486;28;20069;-59
2022/11/19 08:08:42;;;;;;;14.82;12.35;;;;;;;17.39;84.74;96465.94;5020354;28;20096;-60
2022/11/19 08:11:10;;;;;;;16.48;11.82;;;;;;;17.56;83.58;96453.66;5005350;28;20124;-63
2022/11/19 08:13:38;;;;;;;14.50;10.63;;;;;;;17.73;82.66;96478.50;5007111;28;20229;-59
2022/11/19 08:16:08;;;;;;;15.63;12.25;;;;;;;18.12;82.26;96469.28;5006808;28;20141;-62
2022/11/19 08:18:35;;;;;;;17.05;11.00;;;;;;;17.95;81.02;96481.66;5015359;28;20512;-62
2022/11/19 08:21:06;;;;;;;17.50;12.85;;;;;;;17.08;80.07;96282.63;5025629;28;20053;-62
2022/11/19 08:23:34;;;;;;;16.95;11.45;;;;;;;18.52;76.78;96434.34;5012405;28;20539;-59
2022/11/19 08:26:02;;;;;;;17.85;10.95;;;;;;;19.10;76.07;96472.59;5008119;28;20137;-62
2022/11/19 08:28:29;;;;;;;12.57;10.30;;;;;;;19.06;73.32;96466.25;5030009;28;20115;-60
2022/11/19 08:30:56;;;;;;;16.65;11.35;;;;;;;18.87;76.33;96480.41;5010981;28;20046;-61
2022/11/19 08:33:23;;;;;;;10.68;9.57;;;;;;;19.06;75.50;96477.50;5004972;28;20085;-61
2022/11/19 08:35:54;;;;;;;12.10;8.95;;;;;;;18.93;75.30;96479.44;5007916;28;20499;-59
2022/11/19 08:38:21;;;;;;;12.68;9.65;;;;;;;18.04;77.50;96417.41;5005419;28;20046;-59
2022/11/19 08:40:51;;;;;;;25.48;16.08;;;;;;;16.76;83.39;96411.91;5005626;28;20089;-64
2022/11/19 08:43:18;;;;;;;36.85;18.92;;;;;;;17.48;85.78;96485.81;5019251;28;20133;-60
2022/11/19 08:45:54;;;;;;;32.67;18.23;;;;;;;17.19;85.56;96463.09;5006668;28;20077;-63
2022/11/19 08:48:21;;;;;;;19.50;12.27;;;;;;;17.32;83.79;96477.28;5022068;28;20057;-63
2022/11/19 08:50:47;;;;;;;14.98;9.00;;;;;;;17.65;83.34;96479.06;5014777;28;20049;-61
2022/11/19 08:53:14;;;;;;;16.02;10.68;;;;;;;17.54;83.68;96467.28;5005796;28;20049;-66
2022/11/19 08:55:41;;;;;;;15.80;9.65;;;;;;;17.36;83.11;96422.00;5006771;28;20054;-57
2022/11/19 08:58:10;;;;;;;17.10;9.95;;;;;;;17.99;82.60;96485.16;5010969;28;20057;-63
2022/11/19 09:00:36;;;;;;;25.80;12.77;;;;;;;18.04;80.47;96495.88;5010255;28;20132;-62
2022/11/19 09:03:03;;;;;;;20.05;11.55;;;;;;;18.05;79.82;96489.06;4993232;28;20137;-61
2022/11/19 09:05:30;;;;;;;31.45;16.50;;;;;;;18.17;79.33;96491.19;4995238;28;20176;-61
2022/11/19 09:07:57;;;;;;;17.02;10.25;;;;;;;17.72;77.71;96417.31;5002868;28;20603;-57
2022/11/19 09:10:23;;;;;;;22.77;12.15;;;;;;;18.15;76.59;96541.28;5010048;28;20120;-58
2022/11/19 09:12:51;;;;;;;15.60;9.48;;;;;;;18.37;77.07;96479.97;5021357;28;20128;-63
2022/11/19 09:15:19;;;;;;;19.27;10.30;;;;;;;18.64;77.93;96488.97;5023091;28;21026;-61
2022/11/19 09:17:46;;;;;;;14.55;8.70;;;;;;;18.79;76.90;96491.00;5019120;28;20042;-58
2022/11/19 09:20:12;;;;;;;12.00;8.20;;;;;;;18.73;74.08;96487.13;5004131;28;20528;-65
2022/11/19 09:22:39;;;;;;;29.35;15.85;;;;;;;18.57;73.37;96473.09;5001016;28;20145;-63
2022/11/19 09:25:07;;;;;;;8.65;7.03;;;;;;;18.45;76.38;96454.13;5001782;28;20058;-58
2022/11/19 09:27:35;;;;;;;11.32;7.38;;;;;;;18.53;73.27;96421.88;5005161;28;20054;-64
2022/11/19 09:30:04;;;;;;;24.98;14.18;;;;;;;19.03;71.56;96472.75;5005602;28;20125;-64
2022/11/19 09:32:31;;;;;;;16.60;9.88;;;;;;;19.37;70.94;96475.91;5006596;28;20053;-57
2022/11/19 09:34:58;;;;;;;15.50;9.70;;;;;;;19.36;69.77;96471.50;5005282;28;20108;-57
2022/11/19 09:37:24;;;;;;;11.43;7.53;;;;;;;18.87;69.01;96429.88;5006269;28;20596;-64
2022/11/19 09:39:51;;;;;;;13.43;8.20;;;;;;;19.14;69.52;96484.50;5005127;28;20053;-58
2022/11/19 09:42:26;;;;;;;22.85;11.80;;;;;;;19.51;69.31;96481.16;5006783;28;20054;-65
2022/11/19 09:45:12;;;;;;;14.38;8.10;;;;;;;19.75;65.93;96466.84;5006559;28;20136;-58
2022/11/19 09:47:50;;;;;;;8.77;6.25;;;;;;;19.19;67.57;96457.94;5003803;28;20152;-63
2022/11/19 09:50:21;;;;;;;12.63;7.50;;;;;;;19.44;66.89;96456.06;5004596;28;20524;-58
2022/11/19 09:52:54;;;;;;;23.60;12.40;;;;;;;19.28;67.44;96458.88;5006328;28;20145;-64
2022/11/19 09:55:32;;;;;;;15.73;9.13;;;;;;;18.96;69.12;96460.91;5004842;28;20103;-57
2022/11/19 09:57:59;;;;;;;14.77;9.30;;;;;;;18.72;70.32;96460.31;5006045;28;20443;-58
2022/11/19 10:00:29;;;;;;;18.23;10.85;;;;;;;18.32;70.44;96377.50;5005876;28;20049;-62
2022/11/19 10:02:57;;;;;;;19.08;10.02;;;;;;;18.80;70.89;96463.72;5004566;28;20049;-57
2022/11/19 10:05:49;;;;;;;12.70;9.48;;;;;;;18.45;73.00;96448.53;5006345;28;20521;-63
2022/11/19 10:08:57;;;;;;;17.08;10.88;;;;;;;18.70;73.18;96468.38;5005787;28;20068;-63
2022/11/19 10:11:58;;;;;;;27.35;13.68;;;;;;;19.07;73.25;96472.66;5005695;28;20104;-57
2022/11/19 10:14:27;;;;;;;19.25;10.30;;;;;;;19.23;72.48;96470.66;5005662;28;20145;-57
2022/11/19 10:17:06;;;;;;;13.65;9.45;;;;;;;19.42;71.30;96472.59;5005678;28;20208;-57
2022/11/19 10:19:49;;;;;;;12.18;9.10;;;;;;;19.56;69.50;96465.78;5006012;28;20136;-57
2022/11/19 10:22:42;;;;;;;7.88;7.07;;;;;;;19.63;68.62;96459.19;5005429;28;20057;-57
2022/11/19 10:25:09;;;;;;;11.80;9.38;;;;;;;19.80;68.60;96452.25;5005037;28;20061;-63
2022/11/19 10:27:39;;;;;;;12.95;8.57;;;;;;;19.63;69.81;96445.13;5005366;28;20054;-61
2022/11/19 10:30:13;;;;;;;11.48;9.60;;;;;;;19.95;70.41;96442.97;5005392;28;20611;-64
2022/11/19 10:32:46;;;;;;;9.85;7.88;;;;;;;20.12;67.82;96440.88;5005481;28;20523;-63
2022/11/19 10:35:27;;;;;;;11.48;8.30;;;;;;;19.83;68.10;96440.13;5005179;28;20060;-57
2022/11/19 10:37:58;;;;;;;13.20;8.52;;;;;;;19.80;68.31;96435.41;5004127;28;20049;-62
2022/11/19 10:40:35;;;;;;;10.18;7.40;;;;;;;19.60;69.33;96437.59;5005214;28;20497;-62
2022/11/19 10:43:07;;;;;;;11.32;7.88;;;;;;;19.71;69.02;96438.06;5005485;28;20132;-64
2022/11/19 10:45:34;;;;;;;10.30;7.78;;;;;;;19.81;68.91;96434.94;5005005;28;20139;-66
2022/11/19 10:48:22;;;;;;;12.75;7.85;;;;;;;20.10;66.83;96448.97;5005106;28;20081;-64
2022/11/19 10:50:50;;;;;;;8.68;6.70;;;;;;;20.60;64.33;96444.22;5005732;28;20460;-59
2022/11/19 10:53:35;;;;;;;8.98;7.15;;;;;;;20.95;63.61;96447.91;5004907;28;20046;-59
2022/11/19 10:56:11;;;;;;;10.52;6.78;;;;;;;20.93;62.35;96453.19;5004943;28;20104;-65
2022/11/19 10:58:44;;;;;;;8.02;6.93;;;;;;;21.09;62.75;96450.28;5005414;28;20058;-65
2022/11/19 11:01:18;;;;;;;10.65;7.60;;;;;;;21.12;62.18;96440.91;5004950;28;20147;-60
2022/11/19 11:03:49;;;;;;;12.38;9.55;;;;;;;20.29;62.70;96372.06;5005275;28;20091;-64
2022/11/19 11:06:15;;;;;;;14.32;7.97;;;;;;;21.07;62.07;96449.16;5005151;28;20057;-65
2022/11/19 11:08:50;;;;;;;7.85;6.82;;;;;;;21.31;60.98;96437.03;5004950;28;20104;-60
2022/11/19 11:17:15;;;;;;;27.98;15.90;;;;;;;21.41;59.22;96424.63;4999000;28;20485;-64
2022/11/19 11:19:42;;;;;;;23.52;13.80;;;;;;;21.36;59.32;96439.28;4985509;28;20067;-59
2022/11/19 11:22:08;;;;;;;12.02;8.75;;;;;;;21.36;58.11;96432.84;4985471;28;20097;-64
2022/11/19 11:24:37;;;;;;;10.35;7.93;;;;;;;21.67;58.71;96437.34;4983679;28;20486;-59
2022/11/19 11:27:32;;;;;;;8.98;7.97;;;;;;;21.54;58.31;96439.47;4984940;28;20058;-59
2022/11/19 11:30:10;;;;;;;14.10;9.57;;;;;;;21.59;59.57;96433.22;4985368;28;20058;-58
2022/11/19 11:32:39;;;;;;;25.35;14.35;;;;;;;21.27;59.62;96411.03;4985214;28;20141;-60
2022/11/19 11:35:30;;;;;;;12.52;9.45;;;;;;;21.52;59.63;96432.69;4984697;28;20054;-58
2022/11/19 11:37:59;;;;;;;10.25;7.80;;;;;;;21.37;60.73;96412.66;4985397;28;20108;-64
2022/11/19 11:40:27;;;;;;;34.40;14.63;;;;;;;21.40;60.80;96439.16;4983081;28;20593;-58
2022/11/19 11:42:54;;;;;;;18.75;11.05;;;;;;;21.15;59.71;96473.03;4985173;28;20050;-59
2022/11/19 11:45:30;;;;;;;7.20;6.47;;;;;;;20.71;61.07;96430.59;4987573;28;20058;-64
2022/11/19 11:48:02;;;;;;;23.98;11.68;;;;;;;20.75;63.24;96422.03;4989201;28;20577;-64
2022/11/19 11:50:29;;;;;;;14.18;9.40;;;;;;;21.18;62.29;96439.13;4988917;28;20960;-59
2022/11/19 11:52:59;;;;;;;14.00;9.60;;;;;;;21.37;60.01;96437.25;4989096;28;20654;-59